sensor_id;sensor_type;location;lat;lon;timestamp;pressure;altitude;pressure_sealevel;temperature;humidity
70248;BME280;57641;51.416;5.506;2023-06-04T00:00:47;102165.31;;;19.45;36.39
70248;BME280;57641;51.416;5.506;2023-06-04T00:03:13;102164.94;;;19.48;36.07
70248;BME280;57641;51.416;5.506;2023-06-04T00:05:38;102164.16;;;19.39;36.53
70248;BME280;57641;51.416;5.506;2023-06-04T00:08:04;102163.25;;;19.47;36.38
70248;BME280;57641;51.416;5.506;2023-06-04T00:10:30;102163.22;;;19.55;35.71
70248;BME280;57641;51.416;5.506;2023-06-04T00:13:00;102169.19;;;19.12;35.43
70248;BME280;57641;51.416;5.506;2023-06-04T00:15:28;102157.34;;;19.44;35.43
70248;BME280;57641;51.416;5.506;2023-06-04T00:17:54;102163.09;;;19.49;36.27
70248;BME280;57641;51.416;5.506;2023-06-04T00:20:22;102161.06;;;19.51;36.03
70248;BME280;57641;51.416;5.506;2023-06-04T00:22:47;102160.22;;;19.50;36.40
70248;BME280;57641;51.416;5.506;2023-06-04T00:25:13;102166.31;;;19.44;35.98
70248;BME280;57641;51.416;5.506;2023-06-04T00:27:38;102154.13;;;19.48;36.97
70248;BME280;57641;51.416;5.506;2023-06-04T00:30:04;102155.50;;;19.44;36.20
70248;BME280;57641;51.416;5.506;2023-06-04T00:32:30;102162.69;;;19.29;37.67
70248;BME280;57641;51.416;5.506;2023-06-04T00:34:56;102158.13;;;19.29;36.40
70248;BME280;57641;51.416;5.506;2023-06-04T00:37:25;102155.22;;;19.31;37.95
70248;BME280;57641;51.416;5.506;2023-06-04T00:39:51;102161.88;;;19.20;37.86
70248;BME280;57641;51.416;5.506;2023-06-04T00:42:17;102153.16;;;19.10;37.17
70248;BME280;57641;51.416;5.506;2023-06-04T00:44:43;102158.31;;;19.20;37.71
70248;BME280;57641;51.416;5.506;2023-06-04T00:47:14;102158.47;;;19.26;37.32
70248;BME280;57641;51.416;5.506;2023-06-04T00:49:41;102161.03;;;19.20;37.93
70248;BME280;57641;51.416;5.506;2023-06-04T00:52:11;102158.16;;;19.21;38.27
70248;BME280;57641;51.416;5.506;2023-06-04T00:54:39;102157.25;;;19.06;37.44
70248;BME280;57641;51.416;5.506;2023-06-04T00:57:06;102154.00;;;19.11;38.67
70248;BME280;57641;51.416;5.506;2023-06-04T00:59:35;102153.47;;;19.15;38.22
70248;BME280;57641;51.416;5.506;2023-06-04T01:02:14;102150.66;;;19.09;37.91
70248;BME280;57641;51.416;5.506;2023-06-04T01:07:26;102164.09;;;18.86;39.38
70248;BME280;57641;51.416;5.506;2023-06-04T01:09:56;102161.41;;;18.86;40.01
70248;BME280;57641;51.416;5.506;2023-06-04T01:12:22;102160.00;;;18.90;39.81
70248;BME280;57641;51.416;5.506;2023-06-04T01:14:47;102160.00;;;18.90;39.73
70248;BME280;57641;51.416;5.506;2023-06-04T01:17:23;102157.88;;;18.77;39.31
70248;BME280;57641;51.416;5.506;2023-06-04T01:25:40;102169.81;;;18.91;38.67
70248;BME280;57641;51.416;5.506;2023-06-04T01:28:08;102171.25;;;18.71;38.86
70248;BME280;57641;51.416;5.506;2023-06-04T01:30:38;102174.44;;;18.74;39.34
70248;BME280;57641;51.416;5.506;2023-06-04T01:33:09;102173.38;;;18.83;40.04
70248;BME280;57641;51.416;5.506;2023-06-04T01:35:36;102175.56;;;18.88;39.44
70248;BME280;57641;51.416;5.506;2023-06-04T01:38:02;102173.22;;;18.85;39.17
70248;BME280;57641;51.416;5.506;2023-06-04T01:40:27;102172.03;;;18.87;39.45
70248;BME280;57641;51.416;5.506;2023-06-04T01:42:54;102169.88;;;18.75;39.32
70248;BME280;57641;51.416;5.506;2023-06-04T01:45:25;102170.81;;;18.90;39.38
70248;BME280;57641;51.416;5.506;2023-06-04T01:47:52;102174.22;;;18.92;39.00
70248;BME280;57641;51.416;5.506;2023-06-04T01:50:18;102164.75;;;18.88;39.62
70248;BME280;57641;51.416;5.506;2023-06-04T01:52:44;102170.56;;;18.77;39.51
70248;BME280;57641;51.416;5.506;2023-06-04T01:55:12;102170.34;;;18.78;40.30
70248;BME280;57641;51.416;5.506;2023-06-04T01:57:39;102169.03;;;18.74;40.26
70248;BME280;57641;51.416;5.506;2023-06-04T02:00:09;102170.88;;;18.82;40.01
70248;BME280;57641;51.416;5.506;2023-06-04T02:02:36;102170.94;;;18.66;40.68
70248;BME280;57641;51.416;5.506;2023-06-04T02:05:04;102167.91;;;18.61;40.63
70248;BME280;57641;51.416;5.506;2023-06-04T02:07:34;102164.53;;;18.50;41.12
70248;BME280;57641;51.416;5.506;2023-06-04T02:10:00;102170.09;;;18.49;41.50
70248;BME280;57641;51.416;5.506;2023-06-04T02:12:25;102172.81;;;18.41;42.45
70248;BME280;57641;51.416;5.506;2023-06-04T02:14:50;102166.75;;;18.31;42.12
70248;BME280;57641;51.416;5.506;2023-06-04T02:17:16;102163.22;;;18.30;41.98
70248;BME280;57641;51.416;5.506;2023-06-04T02:19:42;102162.88;;;18.25;42.49
70248;BME280;57641;51.416;5.506;2023-06-04T02:22:18;102162.06;;;18.17;42.17
70248;BME280;57641;51.416;5.506;2023-06-04T02:24:48;102165.44;;;18.19;42.22
70248;BME280;57641;51.416;5.506;2023-06-04T02:27:13;102163.44;;;18.12;42.39
70248;BME280;57641;51.416;5.506;2023-06-04T02:29:40;102165.13;;;18.13;42.73
70248;BME280;57641;51.416;5.506;2023-06-04T02:32:06;102165.28;;;18.12;43.18
70248;BME280;57641;51.416;5.506;2023-06-04T02:34:34;102163.25;;;18.06;42.74
70248;BME280;57641;51.416;5.506;2023-06-04T02:37:00;102162.25;;;18.07;43.14
70248;BME280;57641;51.416;5.506;2023-06-04T02:39:26;102161.91;;;17.94;43.24
70248;BME280;57641;51.416;5.506;2023-06-04T02:41:51;102162.91;;;17.93;43.94
70248;BME280;57641;51.416;5.506;2023-06-04T02:44:17;102168.47;;;17.83;43.53
70248;BME280;57641;51.416;5.506;2023-06-04T02:46:43;102167.81;;;17.89;43.63
70248;BME280;57641;51.416;5.506;2023-06-04T02:49:09;102162.44;;;17.81;43.91
70248;BME280;57641;51.416;5.506;2023-06-04T02:51:42;102167.84;;;17.81;44.30
70248;BME280;57641;51.416;5.506;2023-06-04T02:54:08;102165.78;;;17.67;44.19
70248;BME280;57641;51.416;5.506;2023-06-04T02:56:35;102169.66;;;17.72;43.68
70248;BME280;57641;51.416;5.506;2023-06-04T02:59:01;102165.47;;;17.70;43.99
70248;BME280;57641;51.416;5.506;2023-06-04T03:01:27;102162.59;;;17.63;44.47
70248;BME280;57641;51.416;5.506;2023-06-04T03:03:53;102168.66;;;17.65;43.90
70248;BME280;57641;51.416;5.506;2023-06-04T03:06:21;102159.16;;;17.53;44.39
70248;BME280;57641;51.416;5.506;2023-06-04T03:08:48;102159.88;;;17.55;44.73
70248;BME280;57641;51.416;5.506;2023-06-04T03:11:13;102165.91;;;17.49;44.79
70248;BME280;57641;51.416;5.506;2023-06-04T03:13:40;102161.19;;;17.43;44.58
70248;BME280;57641;51.416;5.506;2023-06-04T03:16:05;102164.38;;;17.47;44.67
70248;BME280;57641;51.416;5.506;2023-06-04T03:18:40;102170.94;;;17.36;45.03
70248;BME280;57641;51.416;5.506;2023-06-04T03:21:06;102170.78;;;17.38;44.67
70248;BME280;57641;51.416;5.506;2023-06-04T03:23:32;102174.31;;;17.38;45.22
70248;BME280;57641;51.416;5.506;2023-06-04T03:26:01;102170.44;;;17.33;44.65
70248;BME280;57641;51.416;5.506;2023-06-04T03:28:26;102157.13;;;17.39;44.25
70248;BME280;57641;51.416;5.506;2023-06-04T03:30:52;102165.19;;;17.31;44.67
70248;BME280;57641;51.416;5.506;2023-06-04T03:33:17;102161.34;;;17.42;44.63
70248;BME280;57641;51.416;5.506;2023-06-04T03:35:42;102165.03;;;17.33;44.52
70248;BME280;57641;51.416;5.506;2023-06-04T03:38:08;102165.69;;;17.26;45.34
70248;BME280;57641;51.416;5.506;2023-06-04T03:40:40;102163.34;;;17.23;44.99
70248;BME280;57641;51.416;5.506;2023-06-04T03:43:12;102167.19;;;17.21;45.63
70248;BME280;57641;51.416;5.506;2023-06-04T03:45:37;102168.34;;;17.10;45.65
70248;BME280;57641;51.416;5.506;2023-06-04T03:48:03;102165.00;;;17.16;45.81
70248;BME280;57641;51.416;5.506;2023-06-04T03:50:28;102162.81;;;17.20;45.55
70248;BME280;57641;51.416;5.506;2023-06-04T03:52:55;102173.53;;;17.04;45.80
70248;BME280;57641;51.416;5.506;2023-06-04T03:55:21;102167.50;;;17.10;46.35
70248;BME280;57641;51.416;5.506;2023-06-04T03:57:46;102167.84;;;17.07;46.02
70248;BME280;57641;51.416;5.506;2023-06-04T04:00:13;102171.03;;;17.18;45.44
70248;BME280;57641;51.416;5.506;2023-06-04T04:02:40;102168.78;;;16.98;46.44
70248;BME280;57641;51.416;5.506;2023-06-04T04:05:06;102171.19;;;17.09;46.07
70248;BME280;57641;51.416;5.506;2023-06-04T04:07:31;102180.31;;;17.08;46.05
70248;BME280;57641;51.416;5.506;2023-06-04T04:09:57;102181.97;;;17.09;45.91
70248;BME280;57641;51.416;5.506;2023-06-04T04:12:23;102181.13;;;17.08;45.71
70248;BME280;57641;51.416;5.506;2023-06-04T04:14:48;102178.63;;;17.07;45.56
70248;BME280;57641;51.416;5.506;2023-06-04T04:17:14;102180.97;;;17.10;45.92
70248;BME280;57641;51.416;5.506;2023-06-04T04:19:40;102179.63;;;17.14;45.82
70248;BME280;57641;51.416;5.506;2023-06-04T04:22:06;102185.50;;;17.01;45.85
70248;BME280;57641;51.416;5.506;2023-06-04T04:24:32;102184.81;;;16.99;45.59
70248;BME280;57641;51.416;5.506;2023-06-04T04:26:59;102178.63;;;17.15;45.89
70248;BME280;57641;51.416;5.506;2023-06-04T04:29:25;102184.22;;;17.21;45.39
70248;BME280;57641;51.416;5.506;2023-06-04T04:31:53;102175.91;;;17.07;45.28
70248;BME280;57641;51.416;5.506;2023-06-04T04:34:25;102181.66;;;17.20;45.64
70248;BME280;57641;51.416;5.506;2023-06-04T04:36:51;102189.09;;;17.18;45.78
70248;BME280;57641;51.416;5.506;2023-06-04T04:39:25;102186.75;;;17.23;46.06
70248;BME280;57641;51.416;5.506;2023-06-04T04:41:51;102189.81;;;17.36;44.49
70248;BME280;57641;51.416;5.506;2023-06-04T04:44:17;102185.28;;;17.45;44.02
70248;BME280;57641;51.416;5.506;2023-06-04T04:46:43;102195.91;;;17.54;43.63
70248;BME280;57641;51.416;5.506;2023-06-04T04:49:08;102179.13;;;17.60;43.50
70248;BME280;57641;51.416;5.506;2023-06-04T04:51:34;102185.84;;;17.64;43.39
70248;BME280;57641;51.416;5.506;2023-06-04T04:54:00;102179.25;;;17.67;43.37
70248;BME280;57641;51.416;5.506;2023-06-04T04:56:27;102175.06;;;17.64;43.04
70248;BME280;57641;51.416;5.506;2023-06-04T04:58:53;102179.94;;;17.77;42.93
70248;BME280;57641;51.416;5.506;2023-06-04T05:01:19;102179.28;;;17.75;42.85
70248;BME280;57641;51.416;5.506;2023-06-04T05:03:45;102177.09;;;17.79;42.76
70248;BME280;57641;51.416;5.506;2023-06-04T05:06:11;102184.03;;;17.81;43.18
70248;BME280;57641;51.416;5.506;2023-06-04T05:08:36;102186.88;;;17.80;42.83
70248;BME280;57641;51.416;5.506;2023-06-04T05:11:02;102188.72;;;17.87;43.20
70248;BME280;57641;51.416;5.506;2023-06-04T05:13:27;102189.41;;;17.97;42.59
70248;BME280;57641;51.416;5.506;2023-06-04T05:15:53;102191.94;;;17.91;42.68
70248;BME280;57641;51.416;5.506;2023-06-04T05:18:19;102195.47;;;17.91;42.72
70248;BME280;57641;51.416;5.506;2023-06-04T05:20:46;102187.19;;;17.93;42.78
70248;BME280;57641;51.416;5.506;2023-06-04T05:23:12;102194.78;;;18.05;42.80
70248;BME280;57641;51.416;5.506;2023-06-04T05:25:38;102197.84;;;18.02;43.10
70248;BME280;57641;51.416;5.506;2023-06-04T05:28:03;102192.09;;;18.05;43.12
70248;BME280;57641;51.416;5.506;2023-06-04T05:30:31;102192.94;;;18.06;42.54
70248;BME280;57641;51.416;5.506;2023-06-04T05:32:57;102194.47;;;18.00;42.85
70248;BME280;57641;51.416;5.506;2023-06-04T05:35:22;102193.94;;;18.05;42.55
70248;BME280;57641;51.416;5.506;2023-06-04T05:37:48;102191.06;;;18.14;42.53
70248;BME280;57641;51.416;5.506;2023-06-04T05:40:20;102188.03;;;18.26;42.85
70248;BME280;57641;51.416;5.506;2023-06-04T05:42:47;102189.56;;;18.28;42.89
70248;BME280;57641;51.416;5.506;2023-06-04T05:45:12;102184.97;;;18.37;42.19
70248;BME280;57641;51.416;5.506;2023-06-04T05:47:38;102193.06;;;18.37;42.44
70248;BME280;57641;51.416;5.506;2023-06-04T05:50:04;102187.84;;;18.43;43.29
70248;BME280;57641;51.416;5.506;2023-06-04T05:52:32;102195.94;;;18.43;42.52
70248;BME280;57641;51.416;5.506;2023-06-04T05:54:58;102200.16;;;18.54;42.47
70248;BME280;57641;51.416;5.506;2023-06-04T05:57:24;102199.47;;;18.60;41.79
70248;BME280;57641;51.416;5.506;2023-06-04T05:59:49;102203.34;;;18.66;41.21
70248;BME280;57641;51.416;5.506;2023-06-04T06:02:15;102201.13;;;18.69;41.04
70248;BME280;57641;51.416;5.506;2023-06-04T06:04:40;102202.16;;;18.68;41.80
70248;BME280;57641;51.416;5.506;2023-06-04T06:07:06;102202.13;;;18.76;41.31
70248;BME280;57641;51.416;5.506;2023-06-04T06:09:31;102206.50;;;18.77;41.17
70248;BME280;57641;51.416;5.506;2023-06-04T06:11:57;102201.28;;;18.76;40.93
70248;BME280;57641;51.416;5.506;2023-06-04T06:14:23;102199.56;;;18.83;41.45
70248;BME280;57641;51.416;5.506;2023-06-04T06:16:57;102208.50;;;18.91;41.83
70248;BME280;57641;51.416;5.506;2023-06-04T06:19:26;102205.22;;;19.04;40.94
70248;BME280;57641;51.416;5.506;2023-06-04T06:21:51;102209.44;;;19.07;40.48
70248;BME280;57641;51.416;5.506;2023-06-04T06:24:17;102209.59;;;19.13;40.02
70248;BME280;57641;51.416;5.506;2023-06-04T06:26:42;102213.75;;;19.24;40.11
70248;BME280;57641;51.416;5.506;2023-06-04T06:29:08;102208.84;;;19.27;40.31
70248;BME280;57641;51.416;5.506;2023-06-04T06:31:34;102220.97;;;19.31;40.08
70248;BME280;57641;51.416;5.506;2023-06-04T06:33:59;102219.13;;;19.32;40.56
70248;BME280;57641;51.416;5.506;2023-06-04T06:36:25;102224.13;;;19.43;40.44
70248;BME280;57641;51.416;5.506;2023-06-04T06:38:51;102219.91;;;19.49;39.61
70248;BME280;57641;51.416;5.506;2023-06-04T06:41:17;102222.59;;;19.40;39.06
70248;BME280;57641;51.416;5.506;2023-06-04T06:43:43;102223.22;;;19.59;39.15
70248;BME280;57641;51.416;5.506;2023-06-04T06:46:08;102215.72;;;19.69;39.53
70248;BME280;57641;51.416;5.506;2023-06-04T06:48:33;102215.16;;;19.73;39.09
70248;BME280;57641;51.416;5.506;2023-06-04T06:50:59;102223.94;;;19.75;38.21
70248;BME280;57641;51.416;5.506;2023-06-04T06:53:25;102222.22;;;19.83;38.68
70248;BME280;57641;51.416;5.506;2023-06-04T06:55:50;102223.34;;;19.88;38.49
70248;BME280;57641;51.416;5.506;2023-06-04T06:58:15;102234.13;;;19.96;37.96
70248;BME280;57641;51.416;5.506;2023-06-04T07:00:41;102232.00;;;20.06;37.74
70248;BME280;57641;51.416;5.506;2023-06-04T07:03:06;102222.00;;;20.07;37.92
70248;BME280;57641;51.416;5.506;2023-06-04T07:05:33;102233.34;;;20.25;37.49
70248;BME280;57641;51.416;5.506;2023-06-04T07:07:59;102231.56;;;20.40;36.71
70248;BME280;57641;51.416;5.506;2023-06-04T07:10:26;102230.16;;;20.44;36.71
70248;BME280;57641;51.416;5.506;2023-06-04T07:12:52;102238.69;;;20.56;37.29
70248;BME280;57641;51.416;5.506;2023-06-04T07:15:18;102235.88;;;20.64;36.97
70248;BME280;57641;51.416;5.506;2023-06-04T07:17:44;102230.00;;;20.75;35.35
70248;BME280;57641;51.416;5.506;2023-06-04T07:20:09;102233.09;;;20.72;36.02
70248;BME280;57641;51.416;5.506;2023-06-04T07:22:35;102234.97;;;20.86;36.16
70248;BME280;57641;51.416;5.506;2023-06-04T07:25:01;102232.81;;;20.96;35.41
70248;BME280;57641;51.416;5.506;2023-06-04T07:27:26;102230.66;;;21.06;35.93
70248;BME280;57641;51.416;5.506;2023-06-04T07:29:52;102237.19;;;21.12;35.70
70248;BME280;57641;51.416;5.506;2023-06-04T07:32:17;102241.31;;;21.23;35.46
70248;BME280;57641;51.416;5.506;2023-06-04T07:34:43;102242.03;;;21.31;34.37
70248;BME280;57641;51.416;5.506;2023-06-04T07:37:08;102230.44;;;21.37;33.71
70248;BME280;57641;51.416;5.506;2023-06-04T07:39:35;102242.66;;;21.48;33.25
70248;BME280;57641;51.416;5.506;2023-06-04T07:42:01;102233.94;;;21.53;33.69
70248;BME280;57641;51.416;5.506;2023-06-04T07:44:26;102240.22;;;21.53;33.66
70248;BME280;57641;51.416;5.506;2023-06-04T07:46:52;102229.19;;;21.55;33.21
70248;BME280;57641;51.416;5.506;2023-06-04T07:49:17;102227.19;;;21.63;33.55
70248;BME280;57641;51.416;5.506;2023-06-04T07:51:42;102238.53;;;21.52;33.21
70248;BME280;57641;51.416;5.506;2023-06-04T07:54:08;102231.34;;;21.80;33.11
70248;BME280;57641;51.416;5.506;2023-06-04T07:56:33;102228.88;;;21.85;32.59
70248;BME280;57641;51.416;5.506;2023-06-04T07:58:59;102229.69;;;22.01;32.59
70248;BME280;57641;51.416;5.506;2023-06-04T08:01:24;102233.13;;;22.09;32.75
70248;BME280;57641;51.416;5.506;2023-06-04T08:03:50;102236.13;;;22.21;32.58
70248;BME280;57641;51.416;5.506;2023-06-04T08:06:15;102233.69;;;22.26;32.98
70248;BME280;57641;51.416;5.506;2023-06-04T08:08:45;102238.00;;;22.42;32.84
70248;BME280;57641;51.416;5.506;2023-06-04T08:11:16;102232.69;;;22.33;31.55
70248;BME280;57641;51.416;5.506;2023-06-04T08:13:51;102225.28;;;22.49;31.85
70248;BME280;57641;51.416;5.506;2023-06-04T08:16:16;102236.25;;;22.62;31.78
70248;BME280;57641;51.416;5.506;2023-06-04T08:18:42;102230.56;;;22.57;31.40
70248;BME280;57641;51.416;5.506;2023-06-04T08:21:11;102235.31;;;22.76;30.97
70248;BME280;57641;51.416;5.506;2023-06-04T08:23:37;102231.38;;;22.79;29.55
70248;BME280;57641;51.416;5.506;2023-06-04T08:26:03;102237.53;;;22.94;30.05
70248;BME280;57641;51.416;5.506;2023-06-04T08:28:28;102238.22;;;23.09;29.53
70248;BME280;57641;51.416;5.506;2023-06-04T08:30:54;102233.06;;;23.21;29.82
70248;BME280;57641;51.416;5.506;2023-06-04T08:33:19;102228.47;;;23.28;30.09
70248;BME280;57641;51.416;5.506;2023-06-04T08:35:46;102230.41;;;23.40;30.04
70248;BME280;57641;51.416;5.506;2023-06-04T08:38:11;102238.56;;;23.40;28.58
70248;BME280;57641;51.416;5.506;2023-06-04T08:40:37;102225.47;;;23.57;28.23
70248;BME280;57641;51.416;5.506;2023-06-04T08:43:04;102229.63;;;23.53;27.03
70248;BME280;57641;51.416;5.506;2023-06-04T08:45:33;102229.69;;;23.73;27.45
70248;BME280;57641;51.416;5.506;2023-06-04T08:48:02;102238.47;;;23.75;27.53
70248;BME280;57641;51.416;5.506;2023-06-04T08:50:28;102238.28;;;23.83;27.85
70248;BME280;57641;51.416;5.506;2023-06-04T08:52:55;102238.72;;;23.93;25.96
70248;BME280;57641;51.416;5.506;2023-06-04T08:55:21;102239.13;;;23.96;25.33
70248;BME280;57641;51.416;5.506;2023-06-04T08:57:49;102239.97;;;23.97;25.80
70248;BME280;57641;51.416;5.506;2023-06-04T09:00:18;102229.50;;;24.00;25.41
70248;BME280;57641;51.416;5.506;2023-06-04T09:02:45;102232.66;;;24.04;25.49
70248;BME280;57641;51.416;5.506;2023-06-04T09:05:19;102225.53;;;24.10;25.89
70248;BME280;57641;51.416;5.506;2023-06-04T09:07:46;102235.41;;;24.24;27.07
70248;BME280;57641;51.416;5.506;2023-06-04T09:10:16;102234.78;;;24.42;25.41
70248;BME280;57641;51.416;5.506;2023-06-04T09:12:43;102244.41;;;24.51;25.13
70248;BME280;57641;51.416;5.506;2023-06-04T09:15:12;102240.84;;;24.63;25.08
70248;BME280;57641;51.416;5.506;2023-06-04T09:17:37;102242.28;;;24.72;24.92
70248;BME280;57641;51.416;5.506;2023-06-04T09:20:03;102238.50;;;24.93;23.82
70248;BME280;57641;51.416;5.506;2023-06-04T09:22:34;102242.06;;;24.94;24.11
70248;BME280;57641;51.416;5.506;2023-06-04T09:25:03;102244.78;;;25.00;24.73
70248;BME280;57641;51.416;5.506;2023-06-04T09:27:40;102247.44;;;25.20;24.54
70248;BME280;57641;51.416;5.506;2023-06-04T09:30:06;102244.91;;;25.18;23.90
70248;BME280;57641;51.416;5.506;2023-06-04T09:32:34;102238.19;;;25.21;23.14
70248;BME280;57641;51.416;5.506;2023-06-04T09:35:17;102236.72;;;25.18;23.13
70248;BME280;57641;51.416;5.506;2023-06-04T09:37:52;102232.56;;;25.09;22.57
70248;BME280;57641;51.416;5.506;2023-06-04T09:40:18;102234.19;;;25.23;23.16
70248;BME280;57641;51.416;5.506;2023-06-04T09:42:48;102235.63;;;25.33;23.03
70248;BME280;57641;51.416;5.506;2023-06-04T09:45:30;102236.25;;;25.28;22.60
70248;BME280;57641;51.416;5.506;2023-06-04T09:47:58;102230.94;;;25.46;23.09
70248;BME280;57641;51.416;5.506;2023-06-04T09:50:32;102232.59;;;25.47;22.99
70248;BME280;57641;51.416;5.506;2023-06-04T09:52:59;102230.84;;;25.66;22.64
70248;BME280;57641;51.416;5.506;2023-06-04T09:55:27;102233.56;;;25.66;22.47
70248;BME280;57641;51.416;5.506;2023-06-04T09:57:53;102220.94;;;25.72;21.92
70248;BME280;57641;51.416;5.506;2023-06-04T10:00:28;102211.81;;;25.84;22.64
70248;BME280;57641;51.416;5.506;2023-06-04T10:02:58;102222.06;;;25.89;22.31
70248;BME280;57641;51.416;5.506;2023-06-04T10:05:26;102223.66;;;25.72;22.09
70248;BME280;57641;51.416;5.506;2023-06-04T10:07:55;102222.69;;;25.91;22.99
70248;BME280;57641;51.416;5.506;2023-06-04T10:10:26;102226.31;;;26.10;23.13
70248;BME280;57641;51.416;5.506;2023-06-04T10:13:07;102236.97;;;26.18;22.76
70248;BME280;57641;51.416;5.506;2023-06-04T10:15:35;102236.03;;;26.05;21.34
70248;BME280;57641;51.416;5.506;2023-06-04T10:18:02;102227.94;;;25.92;20.16
70248;BME280;57641;51.416;5.506;2023-06-04T10:20:30;102225.66;;;26.14;20.28
70248;BME280;57641;51.416;5.506;2023-06-04T10:22:56;102231.91;;;26.21;21.65
70248;BME280;57641;51.416;5.506;2023-06-04T10:25:23;102224.66;;;26.33;21.78
70248;BME280;57641;51.416;5.506;2023-06-04T10:27:51;102217.63;;;26.44;20.75
70248;BME280;57641;51.416;5.506;2023-06-04T10:30:18;102222.34;;;26.37;23.32
70248;BME280;57641;51.416;5.506;2023-06-04T10:32:43;102231.09;;;26.45;22.31
70248;BME280;57641;51.416;5.506;2023-06-04T10:35:09;102224.94;;;26.50;21.23
70248;BME280;57641;51.416;5.506;2023-06-04T10:37:35;102224.34;;;26.48;22.35
70248;BME280;57641;51.416;5.506;2023-06-04T10:40:00;102228.06;;;26.54;21.32
70248;BME280;57641;51.416;5.506;2023-06-04T10:42:41;102222.59;;;26.54;21.55
70248;BME280;57641;51.416;5.506;2023-06-04T10:45:08;102216.03;;;26.55;20.74
70248;BME280;57641;51.416;5.506;2023-06-04T10:47:35;102217.13;;;26.54;21.41
70248;BME280;57641;51.416;5.506;2023-06-04T10:50:11;102222.81;;;26.70;21.13
70248;BME280;57641;51.416;5.506;2023-06-04T10:52:57;102219.94;;;26.65;21.43
70248;BME280;57641;51.416;5.506;2023-06-04T10:55:24;102221.19;;;26.69;21.10
70248;BME280;57641;51.416;5.506;2023-06-04T10:57:55;102215.75;;;26.81;21.67
70248;BME280;57641;51.416;5.506;2023-06-04T11:00:21;102217.84;;;26.85;21.96
70248;BME280;57641;51.416;5.506;2023-06-04T11:02:57;102214.13;;;26.98;21.34
70248;BME280;57641;51.416;5.506;2023-06-04T11:05:34;102219.81;;;27.15;21.32
70248;BME280;57641;51.416;5.506;2023-06-04T11:08:01;102222.19;;;27.11;20.57
70248;BME280;57641;51.416;5.506;2023-06-04T11:10:34;102219.75;;;27.21;20.18
70248;BME280;57641;51.416;5.506;2023-06-04T11:13:02;102210.91;;;26.83;20.17
70248;BME280;57641;51.416;5.506;2023-06-04T11:15:41;102217.63;;;27.05;20.66
70248;BME280;57641;51.416;5.506;2023-06-04T11:18:07;102213.97;;;27.11;21.58
70248;BME280;57641;51.416;5.506;2023-06-04T11:20:32;102210.22;;;27.24;20.79
70248;BME280;57641;51.416;5.506;2023-06-04T11:22:58;102213.72;;;27.31;20.48
70248;BME280;57641;51.416;5.506;2023-06-04T11:25:26;102213.56;;;27.26;19.89
70248;BME280;57641;51.416;5.506;2023-06-04T11:27:53;102212.72;;;27.44;20.52
70248;BME280;57641;51.416;5.506;2023-06-04T11:30:19;102212.25;;;27.28;20.23
70248;BME280;57641;51.416;5.506;2023-06-04T11:32:45;102214.22;;;27.40;20.00
70248;BME280;57641;51.416;5.506;2023-06-04T11:35:11;102201.63;;;27.39;19.49
70248;BME280;57641;51.416;5.506;2023-06-04T11:37:37;102199.47;;;27.41;19.15
70248;BME280;57641;51.416;5.506;2023-06-04T11:40:15;102189.91;;;27.61;20.02
70248;BME280;57641;51.416;5.506;2023-06-04T11:42:41;102200.59;;;27.81;20.34
70248;BME280;57641;51.416;5.506;2023-06-04T11:45:13;102187.97;;;27.92;20.10
70248;BME280;57641;51.416;5.506;2023-06-04T11:47:39;102198.69;;;27.93;20.05
70248;BME280;57641;51.416;5.506;2023-06-04T11:50:05;102190.38;;;28.11;20.31
70248;BME280;57641;51.416;5.506;2023-06-04T11:52:33;102178.72;;;28.16;19.68
70248;BME280;57641;51.416;5.506;2023-06-04T11:54:59;102184.34;;;28.21;20.39
70248;BME280;57641;51.416;5.506;2023-06-04T11:57:25;102191.56;;;28.04;18.86
70248;BME280;57641;51.416;5.506;2023-06-04T11:59:51;102183.16;;;28.17;19.52
70248;BME280;57641;51.416;5.506;2023-06-04T12:02:16;102183.00;;;28.24;19.58
70248;BME280;57641;51.416;5.506;2023-06-04T12:04:44;102186.38;;;28.37;19.68
70248;BME280;57641;51.416;5.506;2023-06-04T12:07:09;102189.56;;;28.34;19.91
70248;BME280;57641;51.416;5.506;2023-06-04T12:09:35;102174.88;;;28.05;19.26
70248;BME280;57641;51.416;5.506;2023-06-04T12:12:07;102179.69;;;28.22;19.80
70248;BME280;57641;51.416;5.506;2023-06-04T12:14:34;102177.41;;;28.19;20.00
70248;BME280;57641;51.416;5.506;2023-06-04T12:17:01;102183.16;;;28.29;20.17
70248;BME280;57641;51.416;5.506;2023-06-04T12:19:30;102181.47;;;28.39;20.05
70248;BME280;57641;51.416;5.506;2023-06-04T12:22:07;102177.75;;;28.45;20.10
70248;BME280;57641;51.416;5.506;2023-06-04T12:24:34;102171.94;;;28.42;20.90
70248;BME280;57641;51.416;5.506;2023-06-04T12:27:05;102182.91;;;28.42;20.09
70248;BME280;57641;51.416;5.506;2023-06-04T12:29:32;102168.72;;;28.22;20.14
70248;BME280;57641;51.416;5.506;2023-06-04T12:32:09;102171.09;;;28.30;20.90
70248;BME280;57641;51.416;5.506;2023-06-04T12:34:37;102168.94;;;28.55;21.39
70248;BME280;57641;51.416;5.506;2023-06-04T12:37:03;102175.84;;;28.69;20.98
70248;BME280;57641;51.416;5.506;2023-06-04T12:39:32;102170.47;;;28.63;20.70
70248;BME280;57641;51.416;5.506;2023-06-04T12:41:58;102170.97;;;28.60;20.87
70248;BME280;57641;51.416;5.506;2023-06-04T12:44:23;102169.28;;;28.59;20.60
70248;BME280;57641;51.416;5.506;2023-06-04T12:46:49;102167.84;;;28.56;20.88
70248;BME280;57641;51.416;5.506;2023-06-04T12:49:15;102169.28;;;28.47;20.52
70248;BME280;57641;51.416;5.506;2023-06-04T12:51:41;102161.44;;;28.27;21.03
70248;BME280;57641;51.416;5.506;2023-06-04T12:54:06;102163.53;;;28.72;20.45
70248;BME280;57641;51.416;5.506;2023-06-04T12:56:32;102171.19;;;28.70;20.98
70248;BME280;57641;51.416;5.506;2023-06-04T12:58:57;102154.63;;;28.30;20.77